Chappell Hill, Texas
Current Conditions -  °F | °C
As of 5:35 PM on Monday 22 Dec 2014 (Local Time) from K11R Reporting Station
Clear Clear  
Wind Chill: 65°   Ceiling: Unl
Heat Index: 65°   Visibility: 10mi
Dew Point: 58°   Wind: 3mph
Humidity: 77%   Direction: 200°SSW
Pressure: 29.63"   Gusts: NA
Location:  30.14°N, 96.26°W
Report Text: K11R 222335Z AUTO 20003KT 10SM CLR 19/15 A2963 RMK AO2 T01850145
Loading
Personal Weather Stations






























Interactive Weather Map New forecast layout! Learn more

10-Day Weather Forecast

Advertisements
Track Severe Weather on mobile